FYT1479 LEBL-LIRF
Flight info
| Callsign | FYT1479 |
|---|---|
| Flight time | 1h 17m |
| Altitude | 32000 |
| Route | DIPES N725 INKIR/N0449F320 N725 ORKUM M603 ELSAG DCT ALG DCT RUXOP L5 BATOX/N0393F180 L5 VALMA |
| Aircraft | A321/M-SDE1FGHIJ1RWXY/S |
Departure
| Time | 2026-05-05 13:08 |
|---|---|
| Airport | Josep Tarradellas Barcelona-El Prat Airport (LEBL) |
Arrival
| Time | 2026-05-05 14:25 |
|---|---|
| Airport | Rome–Fiumicino Leonardo da Vinci International Airport (LIRF) |
| Time | Latitude | Longitude | Altitude | Speed | Heading |
|---|---|---|---|---|---|
| 2026-05-05 12:34 | 41.29120 | 2.07845 | 20 ft | 0 kts | 155° |
| 2026-05-05 12:58 | 41.29126 | 2.07841 | 20 ft | 2 kts | 155° |
| 2026-05-05 12:58 | 41.29139 | 2.07833 | 20 ft | 2 kts | 155° |
| 2026-05-05 12:58 | 41.29149 | 2.07827 | 20 ft | 0 kts | 156° |
| 2026-05-05 12:58 | 41.29155 | 2.07821 | 20 ft | 1 kts | 101° |
| 2026-05-05 12:59 | 41.29155 | 2.07814 | 20 ft | 0 kts | 60° |
| 2026-05-05 12:59 | 41.29157 | 2.07826 | 20 ft | 0 kts | 73° |
| 2026-05-05 12:59 | 41.29157 | 2.07827 | 20 ft | 0 kts | 73° |
| 2026-05-05 13:01 | 41.29158 | 2.07831 | 20 ft | 0 kts | 73° |
| 2026-05-05 13:01 | 41.29161 | 2.07842 | 20 ft | 1 kts | 73° |
| 2026-05-05 13:02 | 41.29167 | 2.07859 | 20 ft | 2 kts | 56° |
| 2026-05-05 13:02 | 41.29191 | 2.07900 | 20 ft | 8 kts | 50° |
| 2026-05-05 13:02 | 41.29236 | 2.07971 | 20 ft | 10 kts | 50° |
| 2026-05-05 13:02 | 41.29279 | 2.08056 | 20 ft | 11 kts | 63° |
| 2026-05-05 13:03 | 41.29313 | 2.08155 | 20 ft | 12 kts | 66° |
| 2026-05-05 13:03 | 41.29347 | 2.08259 | 20 ft | 12 kts | 66° |
| 2026-05-05 13:03 | 41.29359 | 2.08369 | 20 ft | 12 kts | 126° |
| 2026-05-05 13:03 | 41.29283 | 2.08427 | 20 ft | 12 kts | 152° |
| 2026-05-05 13:04 | 41.29201 | 2.08481 | 20 ft | 13 kts | 155° |
| 2026-05-05 13:04 | 41.29116 | 2.08534 | 20 ft | 13 kts | 154° |
| 2026-05-05 13:04 | 41.29028 | 2.08586 | 20 ft | 14 kts | 156° |
| 2026-05-05 13:04 | 41.28926 | 2.08649 | 20 ft | 17 kts | 153° |
| 2026-05-05 13:05 | 41.28881 | 2.08773 | 20 ft | 16 kts | 71° |
| 2026-05-05 13:05 | 41.28926 | 2.08914 | 20 ft | 16 kts | 66° |
| 2026-05-05 13:05 | 41.28971 | 2.09049 | 20 ft | 14 kts | 65° |
| 2026-05-05 13:05 | 41.29010 | 2.09161 | 19 ft | 12 kts | 66° |
| 2026-05-05 13:06 | 41.29053 | 2.09284 | 19 ft | 16 kts | 64° |
| 2026-05-05 13:06 | 41.29103 | 2.09433 | 19 ft | 18 kts | 66° |
| 2026-05-05 13:06 | 41.29158 | 2.09590 | 19 ft | 18 kts | 65° |
| 2026-05-05 13:06 | 41.29211 | 2.09749 | 18 ft | 18 kts | 65° |
| 2026-05-05 13:07 | 41.29260 | 2.09907 | 18 ft | 18 kts | 82° |
| 2026-05-05 13:07 | 41.29172 | 2.09949 | 18 ft | 22 kts | 216° |
| 2026-05-05 13:07 | 41.29023 | 2.09745 | 18 ft | 52 kts | 240° |
| 2026-05-05 13:07 | 41.28770 | 2.09009 | 20 ft | 119 kts | 244° |
| 2026-05-05 13:08 | 41.28345 | 2.07776 | 21 ft | 174 kts | 244° |
| 2026-05-05 13:08 | 41.27824 | 2.06191 | 345 ft | 194 kts | 246° |
| 2026-05-05 13:08 | 41.27243 | 2.04611 | 1034 ft | 194 kts | 233° |
| 2026-05-05 13:08 | 41.26239 | 2.03517 | 1701 ft | 190 kts | 198° |
| 2026-05-05 13:09 | 41.24912 | 2.03631 | 2008 ft | 204 kts | 153° |
| 2026-05-05 13:09 | 41.23822 | 2.04905 | 2410 ft | 215 kts | 135° |
| 2026-05-05 13:09 | 41.22621 | 2.06075 | 2884 ft | 222 kts | 157° |
| 2026-05-05 13:09 | 41.21158 | 2.06991 | 3248 ft | 240 kts | 145° |
| 2026-05-05 13:10 | 41.20119 | 2.08765 | 3567 ft | 260 kts | 109° |
| 2026-05-05 13:10 | 41.20038 | 2.11202 | 4110 ft | 271 kts | 79° |
| 2026-05-05 13:10 | 41.20444 | 2.13608 | 4794 ft | 274 kts | 81° |
| 2026-05-05 13:10 | 41.20673 | 2.16131 | 5470 ft | 277 kts | 87° |
| 2026-05-05 13:11 | 41.20717 | 2.18676 | 6123 ft | 280 kts | 92° |
| 2026-05-05 13:11 | 41.20632 | 2.21292 | 6780 ft | 284 kts | 95° |
| 2026-05-05 13:11 | 41.20470 | 2.23874 | 7419 ft | 288 kts | 97° |
| 2026-05-05 13:11 | 41.20255 | 2.26530 | 8054 ft | 291 kts | 99° |
| 2026-05-05 13:12 | 41.20008 | 2.29223 | 8689 ft | 295 kts | 99° |
| 2026-05-05 13:12 | 41.19745 | 2.31922 | 9303 ft | 298 kts | 100° |
| 2026-05-05 13:12 | 41.19470 | 2.34627 | 9951 ft | 301 kts | 101° |
| 2026-05-05 13:12 | 41.19180 | 2.37418 | 10427 ft | 310 kts | 101° |
| 2026-05-05 13:13 | 41.18877 | 2.40286 | 10701 ft | 325 kts | 101° |
| 2026-05-05 13:13 | 41.18554 | 2.43316 | 10969 ft | 340 kts | 101° |
| 2026-05-05 13:13 | 41.18218 | 2.46481 | 11260 ft | 353 kts | 101° |
| 2026-05-05 13:13 | 41.17874 | 2.49727 | 11742 ft | 359 kts | 101° |
| 2026-05-05 13:14 | 41.17529 | 2.52998 | 12309 ft | 362 kts | 101° |
| 2026-05-05 13:14 | 41.17178 | 2.56302 | 12853 ft | 365 kts | 101° |
| 2026-05-05 13:14 | 41.16822 | 2.59646 | 13368 ft | 369 kts | 102° |
| 2026-05-05 13:14 | 41.16458 | 2.63021 | 13882 ft | 372 kts | 101° |
| 2026-05-05 13:15 | 41.16092 | 2.66420 | 14372 ft | 376 kts | 102° |
| 2026-05-05 13:15 | 41.15718 | 2.69869 | 14868 ft | 380 kts | 102° |
| 2026-05-05 13:15 | 41.15344 | 2.73324 | 15321 ft | 384 kts | 102° |
| 2026-05-05 13:15 | 41.14957 | 2.76866 | 15813 ft | 388 kts | 102° |
| 2026-05-05 13:16 | 41.14571 | 2.80422 | 16255 ft | 391 kts | 103° |
| 2026-05-05 13:16 | 41.14182 | 2.83979 | 16688 ft | 395 kts | 103° |
| 2026-05-05 13:16 | 41.13785 | 2.87588 | 17136 ft | 399 kts | 103° |
| 2026-05-05 13:16 | 41.13388 | 2.91205 | 17545 ft | 403 kts | 103° |
| 2026-05-05 13:17 | 41.12979 | 2.94898 | 17956 ft | 407 kts | 103° |
| 2026-05-05 13:17 | 41.12570 | 2.98604 | 18353 ft | 411 kts | 103° |
| 2026-05-05 13:17 | 41.12150 | 3.02390 | 18755 ft | 414 kts | 103° |
| 2026-05-05 13:17 | 41.11729 | 3.06162 | 19156 ft | 417 kts | 103° |
| 2026-05-05 13:18 | 41.11303 | 3.09981 | 19573 ft | 420 kts | 103° |
| 2026-05-05 13:18 | 41.10880 | 3.13761 | 19959 ft | 423 kts | 103° |
| 2026-05-05 13:18 | 41.10442 | 3.17652 | 20325 ft | 427 kts | 103° |
| 2026-05-05 13:18 | 41.10007 | 3.21517 | 20702 ft | 430 kts | 103° |
| 2026-05-05 13:19 | 41.09563 | 3.25441 | 21067 ft | 434 kts | 103° |
| 2026-05-05 13:19 | 41.09112 | 3.29418 | 21468 ft | 436 kts | 103° |
| 2026-05-05 13:19 | 41.08663 | 3.33380 | 21855 ft | 438 kts | 103° |
| 2026-05-05 13:19 | 41.08210 | 3.37350 | 22202 ft | 442 kts | 104° |
| 2026-05-05 13:20 | 41.07748 | 3.41379 | 22542 ft | 445 kts | 104° |
| 2026-05-05 13:20 | 41.07280 | 3.45435 | 22886 ft | 448 kts | 104° |
| 2026-05-05 13:20 | 41.06807 | 3.49528 | 23264 ft | 450 kts | 104° |
| 2026-05-05 13:20 | 41.06316 | 3.53574 | 23598 ft | 451 kts | 105° |
| 2026-05-05 13:21 | 41.05659 | 3.57673 | 23926 ft | 452 kts | 108° |
| 2026-05-05 13:21 | 41.04940 | 3.61731 | 24241 ft | 455 kts | 109° |
| 2026-05-05 13:21 | 41.04205 | 3.65800 | 24556 ft | 457 kts | 110° |
| 2026-05-05 13:21 | 41.03466 | 3.69889 | 24878 ft | 459 kts | 110° |
| 2026-05-05 13:22 | 41.02726 | 3.73999 | 25188 ft | 462 kts | 110° |
| 2026-05-05 13:22 | 41.01985 | 3.78119 | 25509 ft | 463 kts | 110° |
| 2026-05-05 13:22 | 41.01239 | 3.82268 | 25788 ft | 465 kts | 110° |
| 2026-05-05 13:22 | 41.00492 | 3.86407 | 26051 ft | 468 kts | 110° |
| 2026-05-05 13:23 | 40.99734 | 3.90592 | 26325 ft | 470 kts | 110° |
| 2026-05-05 13:23 | 40.98975 | 3.94771 | 26585 ft | 473 kts | 110° |
| 2026-05-05 13:23 | 40.98203 | 3.99027 | 27041 ft | 470 kts | 110° |
| 2026-05-05 13:23 | 40.97460 | 4.03149 | 27759 ft | 460 kts | 110° |
| 2026-05-05 13:24 | 40.96728 | 4.07198 | 28432 ft | 451 kts | 111° |
| 2026-05-05 13:24 | 40.95993 | 4.11214 | 28641 ft | 455 kts | 111° |
| 2026-05-05 13:24 | 40.95236 | 4.15305 | 28776 ft | 461 kts | 111° |
| 2026-05-05 13:24 | 40.94472 | 4.19432 | 28908 ft | 467 kts | 111° |
| 2026-05-05 13:25 | 40.93698 | 4.23622 | 29040 ft | 472 kts | 110° |
| 2026-05-05 13:25 | 40.92915 | 4.27875 | 29167 ft | 477 kts | 111° |
| 2026-05-05 13:25 | 40.92125 | 4.32145 | 29288 ft | 482 kts | 111° |
| 2026-05-05 13:25 | 40.91330 | 4.36439 | 29494 ft | 484 kts | 110° |
| 2026-05-05 13:26 | 40.90540 | 4.40716 | 29821 ft | 484 kts | 110° |
| 2026-05-05 13:26 | 40.89731 | 4.45077 | 30163 ft | 483 kts | 110° |
| 2026-05-05 13:26 | 40.88932 | 4.49369 | 30448 ft | 484 kts | 110° |
| 2026-05-05 13:26 | 40.88136 | 4.53637 | 30714 ft | 485 kts | 110° |
| 2026-05-05 13:27 | 40.87321 | 4.57994 | 31027 ft | 485 kts | 110° |
| 2026-05-05 13:27 | 40.86511 | 4.62298 | 31286 ft | 486 kts | 110° |
| 2026-05-05 13:27 | 40.85783 | 4.66639 | 31500 ft | 491 kts | 107° |
| 2026-05-05 13:27 | 40.85245 | 4.71129 | 31730 ft | 495 kts | 103° |
| 2026-05-05 13:28 | 40.84819 | 4.75641 | 31915 ft | 496 kts | 103° |
| 2026-05-05 13:28 | 40.84413 | 4.80161 | 31917 ft | 497 kts | 103° |
| 2026-05-05 13:28 | 40.83599 | 4.89191 | 31926 ft | 495 kts | 103° |
| 2026-05-05 13:29 | 40.82761 | 4.98215 | 31930 ft | 496 kts | 103° |
| 2026-05-05 13:29 | 40.81914 | 5.07189 | 31930 ft | 496 kts | 103° |
| 2026-05-05 13:30 | 40.81051 | 5.16242 | 31933 ft | 497 kts | 103° |
| 2026-05-05 13:30 | 40.80187 | 5.25212 | 31938 ft | 496 kts | 103° |
| 2026-05-05 13:31 | 40.79310 | 5.34263 | 31944 ft | 496 kts | 103° |
| 2026-05-05 13:31 | 40.78431 | 5.43261 | 31950 ft | 496 kts | 103° |
| 2026-05-05 13:32 | 40.77546 | 5.52223 | 31948 ft | 496 kts | 103° |
| 2026-05-05 13:32 | 40.76654 | 5.61205 | 31946 ft | 496 kts | 102° |
| 2026-05-05 13:33 | 40.75755 | 5.70191 | 31947 ft | 495 kts | 103° |
| 2026-05-05 13:33 | 40.74844 | 5.79202 | 31944 ft | 495 kts | 103° |
| 2026-05-05 13:34 | 40.73936 | 5.88116 | 31949 ft | 494 kts | 103° |
| 2026-05-05 13:34 | 40.73010 | 5.97131 | 31946 ft | 496 kts | 103° |
| 2026-05-05 13:35 | 40.72086 | 6.06082 | 31947 ft | 494 kts | 103° |
| 2026-05-05 13:35 | 40.71155 | 6.15015 | 31936 ft | 494 kts | 103° |
| 2026-05-05 13:36 | 40.70211 | 6.23977 | 31941 ft | 494 kts | 103° |
| 2026-05-05 13:36 | 40.69265 | 6.32891 | 31949 ft | 494 kts | 103° |
| 2026-05-05 13:37 | 40.68309 | 6.41845 | 31954 ft | 494 kts | 103° |
| 2026-05-05 13:37 | 40.67351 | 6.50753 | 31950 ft | 493 kts | 103° |
| 2026-05-05 13:38 | 40.66381 | 6.59683 | 31949 ft | 493 kts | 103° |
| 2026-05-05 13:38 | 40.65396 | 6.68694 | 31945 ft | 493 kts | 103° |
| 2026-05-05 13:39 | 40.64412 | 6.77632 | 31949 ft | 493 kts | 103° |
| 2026-05-05 13:39 | 40.63424 | 6.86566 | 31953 ft | 492 kts | 103° |
| 2026-05-05 13:40 | 40.62434 | 6.95427 | 31954 ft | 492 kts | 103° |
| 2026-05-05 13:40 | 40.61432 | 7.04328 | 31956 ft | 493 kts | 103° |
| 2026-05-05 13:41 | 40.60429 | 7.13194 | 31957 ft | 492 kts | 103° |
| 2026-05-05 13:41 | 40.59418 | 7.22066 | 31957 ft | 492 kts | 103° |
| 2026-05-05 13:42 | 40.58397 | 7.30946 | 31960 ft | 492 kts | 103° |
| 2026-05-05 13:42 | 40.57370 | 7.39850 | 31959 ft | 492 kts | 102° |
| 2026-05-05 13:43 | 40.56810 | 7.48798 | 31962 ft | 497 kts | 94° |
| 2026-05-05 13:43 | 40.57142 | 7.57859 | 31964 ft | 499 kts | 86° |
| 2026-05-05 13:44 | 40.57963 | 7.66966 | 31959 ft | 499 kts | 85° |
| 2026-05-05 13:44 | 40.58778 | 7.76014 | 31964 ft | 499 kts | 86° |
| 2026-05-05 13:45 | 40.59555 | 7.85056 | 31966 ft | 498 kts | 86° |
| 2026-05-05 13:45 | 40.60314 | 7.94100 | 31969 ft | 498 kts | 86° |
| 2026-05-05 13:46 | 40.61066 | 8.03111 | 31971 ft | 498 kts | 86° |
| 2026-05-05 13:46 | 40.61816 | 8.12158 | 31973 ft | 498 kts | 86° |
| 2026-05-05 13:47 | 40.62790 | 8.21194 | 31976 ft | 499 kts | 80° |
| 2026-05-05 13:47 | 40.64611 | 8.30015 | 31979 ft | 500 kts | 71° |
| 2026-05-05 13:48 | 40.67177 | 8.38479 | 31982 ft | 499 kts | 66° |
| 2026-05-05 13:48 | 40.69865 | 8.46861 | 31983 ft | 499 kts | 66° |
| 2026-05-05 13:49 | 40.72546 | 8.55326 | 31984 ft | 499 kts | 66° |
| 2026-05-05 13:49 | 40.75194 | 8.63777 | 31988 ft | 498 kts | 66° |
| 2026-05-05 13:50 | 40.77827 | 8.72221 | 31991 ft | 498 kts | 68° |
| 2026-05-05 13:50 | 40.80461 | 8.80697 | 31993 ft | 498 kts | 68° |
| 2026-05-05 13:51 | 40.83075 | 8.89134 | 31992 ft | 497 kts | 68° |
| 2026-05-05 13:51 | 40.85683 | 8.97585 | 31990 ft | 498 kts | 67° |
| 2026-05-05 13:52 | 40.88268 | 9.05994 | 31993 ft | 497 kts | 67° |
| 2026-05-05 13:52 | 40.90861 | 9.14446 | 31991 ft | 497 kts | 67° |
| 2026-05-05 13:53 | 40.93445 | 9.22895 | 31989 ft | 497 kts | 67° |
| 2026-05-05 13:53 | 40.96019 | 9.31335 | 31988 ft | 496 kts | 67° |
| 2026-05-05 13:54 | 40.98595 | 9.39809 | 31982 ft | 497 kts | 67° |
| 2026-05-05 13:54 | 41.01171 | 9.48316 | 31981 ft | 496 kts | 67° |
| 2026-05-05 13:55 | 41.03735 | 9.56805 | 31989 ft | 496 kts | 67° |
| 2026-05-05 13:55 | 41.06266 | 9.65214 | 31986 ft | 496 kts | 68° |
| 2026-05-05 13:56 | 41.08805 | 9.73683 | 31986 ft | 496 kts | 68° |
| 2026-05-05 13:56 | 41.11341 | 9.82169 | 31984 ft | 496 kts | 68° |
| 2026-05-05 13:57 | 41.13879 | 9.90685 | 31982 ft | 494 kts | 68° |
| 2026-05-05 13:57 | 41.16394 | 9.99161 | 31982 ft | 494 kts | 68° |
| 2026-05-05 13:58 | 41.18898 | 10.07590 | 31983 ft | 493 kts | 68° |
| 2026-05-05 13:58 | 41.21390 | 10.15991 | 31729 ft | 493 kts | 67° |
| 2026-05-05 13:59 | 41.23896 | 10.24403 | 31199 ft | 487 kts | 67° |
| 2026-05-05 13:59 | 41.25132 | 10.28550 | 30935 ft | 484 kts | 67° |
| 2026-05-05 14:00 | 41.27586 | 10.36818 | 30415 ft | 483 kts | 67° |
| 2026-05-05 14:00 | 41.28910 | 10.40951 | 30137 ft | 482 kts | 59° |
| 2026-05-05 14:00 | 41.30864 | 10.44508 | 29880 ft | 477 kts | 45° |
| 2026-05-05 14:00 | 41.33112 | 10.47718 | 29626 ft | 476 kts | 43° |
| 2026-05-05 14:01 | 41.35394 | 10.50872 | 29369 ft | 475 kts | 42° |
| 2026-05-05 14:01 | 41.37650 | 10.54013 | 29114 ft | 475 kts | 43° |
| 2026-05-05 14:01 | 41.39917 | 10.57216 | 28855 ft | 475 kts | 43° |
| 2026-05-05 14:01 | 41.42171 | 10.60444 | 28593 ft | 475 kts | 44° |
| 2026-05-05 14:02 | 41.44384 | 10.63640 | 28267 ft | 475 kts | 44° |
| 2026-05-05 14:02 | 41.46623 | 10.66891 | 27858 ft | 475 kts | 45° |
| 2026-05-05 14:02 | 41.48840 | 10.70121 | 27404 ft | 471 kts | 45° |
| 2026-05-05 14:02 | 41.51040 | 10.73335 | 27059 ft | 466 kts | 45° |
| 2026-05-05 14:03 | 41.53188 | 10.76480 | 26762 ft | 464 kts | 45° |
| 2026-05-05 14:03 | 41.55350 | 10.79645 | 26460 ft | 461 kts | 45° |
| 2026-05-05 14:03 | 41.57498 | 10.82795 | 26158 ft | 459 kts | 45° |
| 2026-05-05 14:03 | 41.59653 | 10.85958 | 25837 ft | 456 kts | 45° |
| 2026-05-05 14:04 | 41.61774 | 10.89076 | 25511 ft | 453 kts | 46° |
| 2026-05-05 14:04 | 41.63873 | 10.92163 | 25187 ft | 450 kts | 46° |
| 2026-05-05 14:04 | 41.65962 | 10.95240 | 24858 ft | 447 kts | 46° |
| 2026-05-05 14:04 | 41.68039 | 10.98300 | 24532 ft | 445 kts | 46° |
| 2026-05-05 14:05 | 41.70104 | 11.01347 | 24201 ft | 442 kts | 46° |
| 2026-05-05 14:05 | 41.72174 | 11.04406 | 23867 ft | 439 kts | 46° |
| 2026-05-05 14:05 | 41.74203 | 11.07405 | 23486 ft | 436 kts | 46° |
| 2026-05-05 14:05 | 41.76214 | 11.10381 | 23051 ft | 433 kts | 46° |
| 2026-05-05 14:06 | 41.78227 | 11.13364 | 22591 ft | 430 kts | 46° |
| 2026-05-05 14:06 | 41.80246 | 11.16241 | 22102 ft | 426 kts | 41° |
| 2026-05-05 14:06 | 41.82447 | 11.18921 | 21536 ft | 423 kts | 39° |
| 2026-05-05 14:06 | 41.84663 | 11.21493 | 20937 ft | 423 kts | 38° |
| 2026-05-05 14:07 | 41.86860 | 11.24048 | 20325 ft | 423 kts | 39° |
| 2026-05-05 14:07 | 41.89070 | 11.26650 | 19711 ft | 422 kts | 39° |
| 2026-05-05 14:07 | 41.91245 | 11.29234 | 19159 ft | 420 kts | 39° |
| 2026-05-05 14:07 | 41.93421 | 11.31836 | 18648 ft | 417 kts | 39° |
| 2026-05-05 14:08 | 41.95559 | 11.34404 | 18147 ft | 414 kts | 39° |
| 2026-05-05 14:08 | 41.97710 | 11.36998 | 17663 ft | 411 kts | 39° |
| 2026-05-05 14:08 | 41.99816 | 11.39537 | 17172 ft | 408 kts | 40° |
| 2026-05-05 14:08 | 42.01922 | 11.42081 | 16682 ft | 405 kts | 40° |
| 2026-05-05 14:09 | 42.03986 | 11.44579 | 16197 ft | 403 kts | 39° |
| 2026-05-05 14:09 | 42.06062 | 11.47091 | 15705 ft | 401 kts | 40° |
| 2026-05-05 14:09 | 42.08117 | 11.49583 | 15226 ft | 398 kts | 40° |
| 2026-05-05 14:09 | 42.10173 | 11.52077 | 14745 ft | 396 kts | 39° |
| 2026-05-05 14:10 | 42.12199 | 11.54539 | 14272 ft | 393 kts | 39° |
| 2026-05-05 14:10 | 42.14233 | 11.57010 | 13790 ft | 390 kts | 39° |
| 2026-05-05 14:10 | 42.16225 | 11.59432 | 13319 ft | 388 kts | 39° |
| 2026-05-05 14:10 | 42.18221 | 11.61861 | 12849 ft | 385 kts | 39° |
| 2026-05-05 14:11 | 42.20206 | 11.64280 | 12360 ft | 382 kts | 39° |
| 2026-05-05 14:11 | 42.22150 | 11.66650 | 11896 ft | 378 kts | 40° |
| 2026-05-05 14:11 | 42.24063 | 11.68989 | 11748 ft | 364 kts | 40° |
| 2026-05-05 14:11 | 42.25893 | 11.71229 | 11666 ft | 349 kts | 40° |
| 2026-05-05 14:12 | 42.27658 | 11.73390 | 11581 ft | 334 kts | 40° |
| 2026-05-05 14:12 | 42.29350 | 11.75462 | 11499 ft | 321 kts | 40° |
| 2026-05-05 14:12 | 42.30933 | 11.77403 | 11411 ft | 304 kts | 40° |
| 2026-05-05 14:12 | 42.32269 | 11.79558 | 11280 ft | 293 kts | 60° |
| 2026-05-05 14:13 | 42.33022 | 11.82056 | 10954 ft | 282 kts | 72° |
| 2026-05-05 14:13 | 42.33573 | 11.84546 | 10606 ft | 272 kts | 74° |
| 2026-05-05 14:13 | 42.34086 | 11.86932 | 10351 ft | 263 kts | 73° |
| 2026-05-05 14:13 | 42.34605 | 11.89257 | 10042 ft | 258 kts | 73° |
| 2026-05-05 14:14 | 42.34968 | 11.91639 | 9644 ft | 261 kts | 92° |
| 2026-05-05 14:14 | 42.34394 | 11.93879 | 9268 ft | 250 kts | 131° |
| 2026-05-05 14:14 | 42.33040 | 11.95202 | 9051 ft | 237 kts | 163° |
| 2026-05-05 14:14 | 42.31456 | 11.95821 | 9062 ft | 237 kts | 169° |
| 2026-05-05 14:15 | 42.29874 | 11.96416 | 9051 ft | 237 kts | 169° |
| 2026-05-05 14:15 | 42.28324 | 11.97188 | 8961 ft | 236 kts | 160° |
| 2026-05-05 14:15 | 42.26876 | 11.98175 | 8549 ft | 236 kts | 157° |
| 2026-05-05 14:15 | 42.25418 | 11.99218 | 8054 ft | 237 kts | 156° |
| 2026-05-05 14:16 | 42.23957 | 12.00252 | 7606 ft | 235 kts | 156° |
| 2026-05-05 14:16 | 42.22515 | 12.01254 | 7181 ft | 233 kts | 157° |
| 2026-05-05 14:16 | 42.21091 | 12.02232 | 6752 ft | 231 kts | 157° |
| 2026-05-05 14:16 | 42.19650 | 12.03210 | 6328 ft | 229 kts | 157° |
| 2026-05-05 14:17 | 42.18242 | 12.04160 | 5904 ft | 227 kts | 157° |
| 2026-05-05 14:17 | 42.16848 | 12.05098 | 5482 ft | 225 kts | 157° |
| 2026-05-05 14:17 | 42.15464 | 12.06030 | 5142 ft | 219 kts | 156° |
| 2026-05-05 14:17 | 42.14126 | 12.06929 | 4843 ft | 212 kts | 156° |
| 2026-05-05 14:18 | 42.12826 | 12.07802 | 4599 ft | 208 kts | 156° |
| 2026-05-05 14:18 | 42.11541 | 12.08663 | 4315 ft | 207 kts | 156° |
| 2026-05-05 14:18 | 42.10247 | 12.09530 | 4037 ft | 205 kts | 156° |
| 2026-05-05 14:18 | 42.08968 | 12.10385 | 3774 ft | 204 kts | 155° |
| 2026-05-05 14:19 | 42.07708 | 12.11230 | 3516 ft | 202 kts | 155° |
| 2026-05-05 14:19 | 42.06500 | 12.12192 | 3216 ft | 203 kts | 147° |
| 2026-05-05 14:19 | 42.05423 | 12.13399 | 2917 ft | 200 kts | 137° |
| 2026-05-05 14:19 | 42.04465 | 12.14760 | 2670 ft | 199 kts | 134° |
| 2026-05-05 14:20 | 42.03540 | 12.16129 | 2584 ft | 198 kts | 134° |
| 2026-05-05 14:20 | 42.02621 | 12.17491 | 2547 ft | 197 kts | 135° |
| 2026-05-05 14:20 | 42.01561 | 12.18648 | 2478 ft | 191 kts | 149° |
| 2026-05-05 14:20 | 42.00437 | 12.19392 | 2494 ft | 175 kts | 158° |
| 2026-05-05 14:21 | 41.99298 | 12.19964 | 2486 ft | 175 kts | 162° |
| 2026-05-05 14:21 | 41.98139 | 12.20483 | 2481 ft | 175 kts | 162° |
| 2026-05-05 14:21 | 41.96973 | 12.20980 | 2468 ft | 175 kts | 163° |
| 2026-05-05 14:21 | 41.95811 | 12.21467 | 2276 ft | 174 kts | 163° |
| 2026-05-05 14:22 | 41.94685 | 12.21935 | 2047 ft | 164 kts | 163° |
| 2026-05-05 14:22 | 41.93644 | 12.22369 | 1824 ft | 151 kts | 162° |
| 2026-05-05 14:22 | 41.92651 | 12.22783 | 1638 ft | 150 kts | 162° |
| 2026-05-05 14:22 | 41.91651 | 12.23200 | 1460 ft | 151 kts | 162° |
| 2026-05-05 14:23 | 41.90643 | 12.23621 | 1271 ft | 151 kts | 162° |
| 2026-05-05 14:23 | 41.89685 | 12.24021 | 1049 ft | 138 kts | 162° |
| 2026-05-05 14:23 | 41.88779 | 12.24399 | 878 ft | 135 kts | 163° |
| 2026-05-05 14:23 | 41.87886 | 12.24769 | 707 ft | 135 kts | 161° |
| 2026-05-05 14:24 | 41.86982 | 12.25148 | 531 ft | 135 kts | 161° |
| 2026-05-05 14:24 | 41.86086 | 12.25525 | 352 ft | 135 kts | 161° |
| 2026-05-05 14:24 | 41.85198 | 12.25896 | 179 ft | 134 kts | 163° |
| 2026-05-05 14:24 | 41.84302 | 12.26268 | 29 ft | 133 kts | 161° |
| 2026-05-05 14:25 | 41.83500 | 12.26610 | 12 ft | 100 kts | 162° |
| 2026-05-05 14:25 | 41.83002 | 12.26818 | 11 ft | 50 kts | 162° |
| 2026-05-05 14:25 | 41.82777 | 12.26889 | 10 ft | 27 kts | 186° |
| 2026-05-05 14:25 | 41.82595 | 12.26840 | 10 ft | 26 kts | 192° |
| 2026-05-05 14:26 | 41.82418 | 12.26787 | 10 ft | 25 kts | 190° |
| 2026-05-05 14:26 | 41.82250 | 12.26812 | 10 ft | 24 kts | 164° |
| 2026-05-05 14:26 | 41.82089 | 12.26876 | 11 ft | 23 kts | 163° |
| 2026-05-05 14:26 | 41.81934 | 12.26942 | 11 ft | 22 kts | 162° |
| 2026-05-05 14:27 | 41.81785 | 12.27004 | 11 ft | 22 kts | 162° |
| 2026-05-05 14:27 | 41.81641 | 12.27065 | 12 ft | 21 kts | 163° |
| 2026-05-05 14:27 | 41.81504 | 12.27122 | 12 ft | 20 kts | 162° |
| 2026-05-05 14:27 | 41.81372 | 12.27176 | 12 ft | 19 kts | 163° |
| 2026-05-05 14:28 | 41.81246 | 12.27228 | 12 ft | 18 kts | 162° |
| 2026-05-05 14:28 | 41.81124 | 12.27280 | 13 ft | 18 kts | 162° |
| 2026-05-05 14:28 | 41.81003 | 12.27331 | 13 ft | 17 kts | 162° |
| 2026-05-05 14:28 | 41.80882 | 12.27343 | 13 ft | 17 kts | 189° |
| 2026-05-05 14:29 | 41.80761 | 12.27312 | 13 ft | 17 kts | 190° |
| 2026-05-05 14:29 | 41.80661 | 12.27237 | 13 ft | 17 kts | 239° |
| 2026-05-05 14:29 | 41.80618 | 12.27091 | 13 ft | 16 kts | 250° |
| 2026-05-05 14:29 | 41.80577 | 12.26946 | 14 ft | 16 kts | 249° |
| 2026-05-05 14:30 | 41.80537 | 12.26803 | 14 ft | 16 kts | 250° |
| 2026-05-05 14:30 | 41.80499 | 12.26663 | 15 ft | 15 kts | 249° |
| 2026-05-05 14:30 | 41.80460 | 12.26526 | 15 ft | 15 kts | 249° |
| 2026-05-05 14:30 | 41.80409 | 12.26400 | 15 ft | 15 kts | 218° |
| 2026-05-05 14:31 | 41.80306 | 12.26388 | 15 ft | 15 kts | 161° |
| 2026-05-05 14:31 | 41.80202 | 12.26399 | 15 ft | 15 kts | 196° |
| 2026-05-05 14:31 | 41.80121 | 12.26334 | 16 ft | 8 kts | 237° |
| 2026-05-05 14:31 | 41.80115 | 12.26266 | 16 ft | 2 kts | 253° |
| 2026-05-05 14:32 | 41.80103 | 12.26243 | 16 ft | 3 kts | 221° |
| 2026-05-05 14:32 | 41.80083 | 12.26224 | 16 ft | 3 kts | 208° |
| 2026-05-05 14:32 | 41.80068 | 12.26214 | 16 ft | 0 kts | 206° |